Kaw, Oklahoma
Current Conditions -  °F | °C
As of 7:53 PM on Friday 19 Dec 2014 (Local Time) from KPNC Reporting Station
Overcast Overcast  
Wind Chill: 39°   Ceiling: 1800
Heat Index: 39°   Visibility: 10mi
Dew Point: 33°   Wind: 3mph
Humidity: 79%   Direction: 170°S
Pressure: 30.21"   Gusts: NA
Location:  36.8967°N, 96.8424°W
Report Text: KPNC 200153Z AUTO 17003KT 10SM OVC018 04/01 A3021 RMK AO2 SLP234 T00390006
Loading
Personal Weather Stations






























Interactive Weather Map New forecast layout! Learn more

10-Day Weather Forecast

Advertisements
Track Severe Weather on mobile